GQNO Airport Information

Runway Information
Airport Frequencies
Airport Navaids
Airport Weather Information & NOTAM
ADDS - METARS form results

(1546 UTC 08 December 2019)
Data provider http://aviationweather.gov/metar/data/
 
METAR text: GQNO 081530Z 06015KT 030V090 4000 BLSA NSC 29/05 Q1013 NOSIG
Conditions at: GQNO (NOUAKCHOTT/OUMTO, MR) observed 1530 UTC 08 December 2019
Temperature: 29.0°C (84°F)
Dewpoint: 5.0°C (41°F) [RH = 22%]
Pressure (altimeter): 29.91 inches Hg (1013.0 mb)
Winds: from the ENE (60 degrees) at 17 MPH (15 knots; 7.7 m/s)
Visibility: 2.49 miles (4.01 km)
Ceiling: at least 12,000 feet AGL
Clouds: sky clear below 12,000 feet AGL
Weather: BLSA  (blowing sand)

METAR text: GQNO 081500Z 05016KT 4000 BLSA NSC 29/05 Q1013 NOSIG
Conditions at: GQNO (NOUAKCHOTT/OUMTO, MR) observed 1500 UTC 08 December 2019
Temperature: 29.0°C (84°F)
Dewpoint: 5.0°C (41°F) [RH = 22%]
Pressure (altimeter): 29.91 inches Hg (1013.0 mb)
Winds: from the NE (50 degrees) at 18 MPH (16 knots; 8.2 m/s)
Visibility: 2.49 miles (4.01 km)
Ceiling: at least 12,000 feet AGL
Clouds: sky clear below 12,000 feet AGL
Weather: BLSA  (blowing sand)

Forecast for: GQNO (NOUAKCHOTT/OUMTO, MR)
Text: TAF GQNO 081100Z 0812/0918 07014KT 7000 NSC
Forecast period: 1200 to 1700 UTC 08 December 2019
Forecast type: FROM: standard forecast or significant change
Winds: from the ENE (70 degrees) at 16 MPH (14 knots; 7.2 m/s)
Visibility: 4 miles (7 km)
Ceiling: unknown
Clouds: missing
Weather: no significant weather forecast for this period
Text: PROB40
Forecast period: 1200 to 1600 UTC 08 December 2019
Forecast type: TEMPORARY: The following changes expected for less than half the time period
Visibility: 2.49 miles (4.01 km)
Ceiling: unknown
Clouds: missing
Weather: BLSA  (blowing sand)
Text: TEMPO 0812/0816 4000 BLSA
Forecast period: 1700 UTC 08 December 2019 to 1800 UTC 09 December 2019
Forecast type: BECOMING: Conditions expected to become as follows by 1900 UTC 08 December 2019
Winds: from the N (10 degrees) at 14 MPH (12 knots; 6.2 m/s)
Visibility: 4 miles (7 km)
Ceiling: unknown
Clouds: missing
Weather: no significant weather forecast for this period